Time;durP1;ratioP1;P1;durP2;ratioP2;P2;SDS_P1;SDS_P2;PMS_P1;PMS_P2;Temp;Humidity;BMP_temperature;BMP_pressure;BME280_temperature;BME280_humidity;BME280_pressure;Samples;Min_cycle;Max_cycle;Signal;HPM_P1;HPM_P2
2023/03/10 00:00:07;;;;;;;1.25;1.25;;;;;;;11.84;49.39;98740.50;4449963;32;33291;-88
2023/03/10 00:02:36;;;;;;;2.62;2.40;;;;;;;11.68;50.42;98730.00;4444430;32;32820;-88
2023/03/10 00:05:04;;;;;;;3.78;3.37;;;;;;;11.67;50.67;98730.97;4446903;32;33603;-88
2023/03/10 00:07:32;;;;;;;7.47;2.08;;;;;;;11.49;50.37;98727.75;4446046;32;32336;-88
2023/03/10 00:10:00;;;;;;;4.10;1.92;;;;;;;11.56;50.11;98714.97;4462228;32;34699;-88
2023/03/10 00:12:28;;;;;;;1.67;1.58;;;;;;;11.52;50.32;98720.44;4448343;32;33935;-88
2023/03/10 00:14:56;;;;;;;1.60;1.50;;;;;;;11.38;50.97;98719.63;4446641;32;33002;-88
2023/03/10 00:17:24;;;;;;;5.47;0.80;;;;;;;11.15;51.48;98723.72;4434303;32;33144;-87
2023/03/10 00:19:55;;;;;;;3.17;2.45;;;;;;;11.56;49.98;98714.97;4450287;32;34724;-88
2023/03/10 00:22:23;;;;;;;8.95;2.00;;;;;;;11.63;49.38;98716.25;4446204;32;33742;-87
2023/03/10 00:24:53;;;;;;;0.28;0.17;;;;;;;11.09;50.93;98722.34;4448456;32;32722;-86
2023/03/10 00:27:21;;;;;;;0.15;0.15;;;;;;;11.02;51.25;98727.16;4450022;32;33726;-86
2023/03/10 00:29:50;;;;;;;0.30;0.30;;;;;;;11.26;50.51;98730.06;4445122;32;32572;-86
2023/03/10 00:32:18;;;;;;;4.53;0.77;;;;;;;10.91;51.29;98729.59;4465065;32;32670;-86
2023/03/10 00:34:47;;;;;;;0.00;0.00;;;;;;;10.65;52.27;98727.75;4446544;32;32725;-86
2023/03/10 00:37:17;;;;;;;5.93;1.45;;;;;;;10.45;53.27;98716.59;4443608;32;33522;-85
2023/03/10 00:39:50;;;;;;;1.77;1.67;;;;;;;10.57;52.82;98711.50;4444720;32;35105;-85
2023/03/10 00:42:19;;;;;;;;;;;;;;;10.47;53.13;98709.44;4443700;32;32923;-85
2023/03/10 00:44:47;;;;;;;0.22;0.22;;;;;;;10.47;53.19;98711.22;4456221;32;32066;-85
2023/03/10 00:47:16;;;;;;;0.93;0.88;;;;;;;10.44;53.37;98704.34;4433052;32;35500;-86
2023/03/10 00:49:44;;;;;;;3.75;2.17;;;;;;;10.35;53.61;98704.91;4445049;32;34334;-86
2023/03/10 00:52:12;;;;;;;1.77;1.67;;;;;;;10.43;53.41;98696.50;4446001;32;33397;-85
2023/03/10 00:54:40;;;;;;;2.92;2.12;;;;;;;10.30;53.64;98696.38;4447348;32;32813;-86
2023/03/10 00:57:08;;;;;;;5.97;2.87;;;;;;;10.31;53.44;98698.13;4457028;32;34332;-85
2023/03/10 00:59:36;;;;;;;2.75;1.37;;;;;;;10.31;53.27;98695.47;4447749;32;34711;-86
2023/03/10 01:02:20;;;;;;;6.50;2.08;;;;;;;10.28;53.53;98687.72;4459966;32;33903;-86
2023/03/10 01:04:48;;;;;;;0.32;0.32;;;;;;;10.14;53.87;98696.44;4456979;32;32159;-87
2023/03/10 01:07:16;;;;;;;0.73;0.73;;;;;;;10.10;53.96;98696.72;4455856;32;33534;-87
2023/03/10 01:09:44;;;;;;;0.62;0.62;;;;;;;10.20;53.73;98687.31;4446551;32;33983;-87
2023/03/10 01:12:12;;;;;;;0.75;0.68;;;;;;;10.12;53.22;98686.94;4448685;32;32898;-86
2023/03/10 01:14:40;;;;;;;0.35;0.35;;;;;;;10.13;53.15;98683.34;4446577;32;32938;-86
2023/03/10 01:17:09;;;;;;;0.68;0.68;;;;;;;9.97;53.89;98680.78;4437600;32;33351;-86
2023/03/10 01:19:37;;;;;;;0.40;0.40;;;;;;;9.98;53.59;98679.84;4452026;32;35211;-86
2023/03/10 01:22:05;;;;;;;1.62;1.52;;;;;;;9.94;54.03;98675.69;4461250;32;33835;-86
2023/03/10 01:24:33;;;;;;;0.00;0.00;;;;;;;10.00;53.56;98668.25;4458994;32;33413;-86
2023/03/10 01:27:02;;;;;;;0.10;0.10;;;;;;;9.88;54.04;98669.00;4449660;32;33725;-86
2023/03/10 01:29:30;;;;;;;2.08;1.00;;;;;;;9.92;53.81;98674.91;4436244;32;32672;-85
2023/03/10 01:31:57;;;;;;;0.05;0.05;;;;;;;9.80;54.04;98665.94;4458055;32;34113;-85
2023/03/10 01:34:25;;;;;;;0.00;0.00;;;;;;;9.73;54.28;98660.19;4443926;32;32276;-84
2023/03/10 01:36:53;;;;;;;3.47;1.67;;;;;;;10.00;52.87;98654.22;4460082;32;33388;-85
2023/03/10 01:39:21;;;;;;;0.05;0.05;;;;;;;9.66;53.59;98658.84;4458893;32;33868;-85
2023/03/10 01:41:49;;;;;;;1.55;1.45;;;;;;;9.38;54.92;98656.94;4441749;32;34518;-84
2023/03/10 01:44:19;;;;;;;2.20;1.77;;;;;;;9.45;55.05;98653.03;4456627;32;32993;-85
2023/03/10 01:46:53;;;;;;;0.45;0.45;;;;;;;9.30;55.10;98655.66;4429814;32;33052;-84
2023/03/10 01:49:35;;;;;;;0.20;0.20;;;;;;;9.09;55.55;98657.72;4455229;32;34204;-84
2023/03/10 01:52:10;;;;;;;1.10;1.02;;;;;;;9.04;55.76;98650.09;4454527;32;32895;-83
2023/03/10 01:54:48;;;;;;;0.40;0.40;;;;;;;9.04;55.93;98649.25;4446842;32;34011;-84
2023/03/10 01:57:19;;;;;;;2.85;2.65;;;;;;;9.12;55.78;98636.50;4455353;32;34346;-86
2023/03/10 01:59:48;;;;;;;4.95;1.62;;;;;;;9.11;55.56;98629.53;4443074;32;33331;-86
2023/03/10 02:02:17;;;;;;;3.08;0.75;;;;;;;8.99;56.31;98628.44;4438875;32;32694;-86
2023/03/10 02:04:47;;;;;;;1.17;1.10;;;;;;;9.08;55.73;98620.03;4457424;32;33311;-86
2023/03/10 02:07:24;;;;;;;0.05;0.05;;;;;;;9.05;55.43;98624.59;4459388;32;32675;-86
2023/03/10 02:09:53;;;;;;;0.37;0.37;;;;;;;8.88;55.87;98621.16;4447527;32;33029;-85
2023/03/10 02:12:21;;;;;;;2.17;1.98;;;;;;;8.85;56.10;98621.31;4462575;32;33389;-85
2023/03/10 02:14:50;;;;;;;0.57;0.57;;;;;;;9.18;54.87;98615.09;4437175;32;31813;-84
2023/03/10 02:17:20;;;;;;;1.40;1.33;;;;;;;9.05;54.95;98614.06;4439707;32;34172;-86
2023/03/10 02:20:11;;;;;;;0.20;0.20;;;;;;;8.73;55.94;98614.06;4457283;32;33221;-85
2023/03/10 02:22:39;;;;;;;0.08;0.08;;;;;;;8.84;55.69;98609.09;4454216;32;33392;-87
2023/03/10 02:25:46;;;;;;;0.10;0.10;;;;;;;8.66;56.52;98616.22;4449579;32;33628;-87
2023/03/10 02:28:14;;;;;;;1.05;1.05;;;;;;;8.66;56.39;98612.72;4463881;32;33790;-87
2023/03/10 02:30:46;;;;;;;0.00;0.00;;;;;;;8.66;56.02;98596.94;4419079;32;33590;-86
2023/03/10 02:33:22;;;;;;;1.50;1.40;;;;;;;8.66;56.17;98596.94;4455075;31;33354;-86
2023/03/10 02:35:50;;;;;;;0.28;0.28;;;;;;;8.57;56.65;98602.69;4458534;32;32679;-86
2023/03/10 02:38:19;;;;;;;0.20;0.10;;;;;;;8.45;56.79;98607.72;4463369;31;32514;-86
2023/03/10 02:40:51;;;;;;;0.90;0.90;;;;;;;8.51;56.45;98608.31;4439950;31;32480;-86
2023/03/10 02:43:28;;;;;;;2.75;1.00;;;;;;;8.53;56.28;98601.16;4470544;31;33146;-86
2023/03/10 02:46:00;;;;;;;2.47;1.65;;;;;;;8.39;57.06;98600.13;4457160;31;31750;-86
2023/03/10 02:48:31;;;;;;;1.35;1.20;;;;;;;8.30;57.19;98595.31;4465425;31;33817;-86
2023/03/10 02:51:04;;;;;;;0.80;0.80;;;;;;;8.34;57.04;98590.75;4449568;32;33629;-86
2023/03/10 02:53:32;;;;;;;0.00;0.00;;;;;;;8.28;57.26;98591.94;4449669;32;34594;-86
2023/03/10 02:56:00;;;;;;;1.75;0.82;;;;;;;8.25;56.81;98591.25;4454112;32;33088;-86
2023/03/10 02:58:31;;;;;;;0.82;0.80;;;;;;;8.28;56.80;98589.31;4471329;31;33765;-86
2023/03/10 03:01:00;;;;;;;0.35;0.35;;;;;;;8.38;56.62;98576.53;4451022;32;33499;-86
2023/03/10 03:03:28;;;;;;;0.20;0.20;;;;;;;8.40;56.02;98574.66;4455035;32;33361;-85
2023/03/10 03:05:56;;;;;;;0.13;0.13;;;;;;;8.24;56.71;98569.38;4454629;31;34049;-86
2023/03/10 03:08:26;;;;;;;0.45;0.45;;;;;;;8.26;56.35;98572.78;4453722;31;34467;-85
2023/03/10 03:10:55;;;;;;;0.22;0.22;;;;;;;8.11;57.47;98569.16;4464996;31;33274;-86
2023/03/10 03:13:23;;;;;;;0.20;0.20;;;;;;;8.06;57.70;98555.41;4452639;32;32139;-85
2023/03/10 03:15:52;;;;;;;0.10;0.10;;;;;;;8.14;57.30;98558.50;4456521;31;32663;-85
2023/03/10 03:18:21;;;;;;;0.03;0.03;;;;;;;8.37;55.87;98552.03;4462238;31;33654;-86
2023/03/10 03:20:49;;;;;;;1.77;1.65;;;;;;;8.48;55.35;98545.31;4454251;32;34903;-86
2023/03/10 03:23:18;;;;;;;0.05;0.05;;;;;;;8.12;56.26;98549.00;4466507;31;33421;-86
2023/03/10 03:25:46;;;;;;;0.00;0.00;;;;;;;7.84;57.55;98549.62;4460811;32;32018;-84
2023/03/10 03:28:14;;;;;;;4.05;0.75;;;;;;;7.99;57.15;98542.69;4446065;32;33195;-84
2023/03/10 03:30:43;;;;;;;0.15;0.15;;;;;;;7.85;57.79;98540.78;4469889;31;32402;-84
2023/03/10 03:33:12;;;;;;;0.85;0.62;;;;;;;7.82;57.90;98538.31;4450313;31;32620;-84
2023/03/10 03:35:42;;;;;;;0.05;0.05;;;;;;;7.87;57.94;98533.66;4445463;32;33386;-84
2023/03/10 03:38:10;;;;;;;0.10;0.10;;;;;;;7.87;58.04;98528.41;4436633;32;33283;-84
2023/03/10 03:40:40;;;;;;;0.45;0.45;;;;;;;7.86;58.15;98524.09;4431629;32;33289;-84
2023/03/10 03:43:09;;;;;;;0.03;0.03;;;;;;;7.90;57.56;98512.50;4440417;32;33285;-84
2023/03/10 03:45:37;;;;;;;1.00;1.00;;;;;;;7.77;57.88;98514.91;4433721;32;32313;-84
2023/03/10 03:48:04;;;;;;;1.65;1.00;;;;;;;7.73;58.16;98509.91;4446683;32;33794;-84
2023/03/10 03:50:33;;;;;;;0.00;0.00;;;;;;;7.64;58.10;98516.47;4436134;32;34817;-84
2023/03/10 03:53:03;;;;;;;0.00;0.00;;;;;;;7.81;57.69;98513.81;4444165;32;33153;-84
2023/03/10 03:55:33;;;;;;;0.00;0.00;;;;;;;8.01;56.80;98496.97;4425267;32;32392;-87
2023/03/10 03:58:01;;;;;;;0.08;0.08;;;;;;;8.09;55.94;98491.31;4425047;32;33692;-87
2023/03/10 04:00:29;;;;;;;0.55;0.55;;;;;;;7.70;57.27;98495.16;4450993;32;34164;-87
2023/03/10 04:02:59;;;;;;;0.00;0.00;;;;;;;7.42;58.57;98490.50;4431809;32;32865;-87
2023/03/10 04:05:27;;;;;;;0.00;0.00;;;;;;;7.58;58.20;98486.13;4427022;32;33691;-87
2023/03/10 04:07:56;;;;;;;0.28;0.28;;;;;;;7.69;57.66;98482.94;4432761;32;33533;-87
2023/03/10 04:10:27;;;;;;;1.25;0.73;;;;;;;7.74;57.61;98485.31;4435051;32;33581;-87
2023/03/10 04:12:56;;;;;;;0.00;0.00;;;;;;;7.74;57.49;98483.56;4414906;32;34577;-87
2023/03/10 04:15:24;;;;;;;0.22;0.22;;;;;;;7.66;57.65;98472.59;4419893;32;32299;-87
2023/03/10 04:17:52;;;;;;;0.75;0.75;;;;;;;7.46;58.01;98478.06;4423459;32;33617;-87
2023/03/10 04:20:20;;;;;;;0.37;0.37;;;;;;;7.33;58.38;98475.22;4432017;32;33900;-87
2023/03/10 04:22:51;;;;;;;0.20;0.13;;;;;;;7.26;58.51;98474.66;4428346;32;33866;-87
2023/03/10 04:25:19;;;;;;;0.00;0.00;;;;;;;6.91;59.74;98479.09;4431259;32;33138;-87
2023/03/10 04:27:48;;;;;;;0.20;0.20;;;;;;;7.10;59.47;98482.47;4421088;32;33555;-87
2023/03/10 04:30:16;;;;;;;1.05;0.52;;;;;;;7.28;59.09;98480.69;4436018;32;33534;-87
2023/03/10 04:32:45;;;;;;;0.00;0.00;;;;;;;7.43;57.78;98474.66;4450918;32;32707;-87
2023/03/10 04:35:16;;;;;;;0.10;0.10;;;;;;;7.50;57.67;98462.06;4438390;32;32247;-86
2023/03/10 04:37:45;;;;;;;0.22;0.22;;;;;;;7.36;57.96;98472.44;4448340;32;32587;-86
2023/03/10 04:40:13;;;;;;;1.05;0.77;;;;;;;7.24;58.83;98466.03;4468507;31;35644;-86
2023/03/10 04:42:43;;;;;;;0.40;0.40;;;;;;;7.26;58.92;98466.78;4443325;31;33463;-86
2023/03/10 04:45:13;;;;;;;0.10;0.10;;;;;;;7.16;59.38;98468.19;4448494;32;32593;-85
2023/03/10 04:47:42;;;;;;;0.75;0.75;;;;;;;7.14;59.18;98470.06;4447163;32;31918;-86
2023/03/10 04:50:16;;;;;;;2.63;2.43;;;;;;;7.16;58.77;98468.19;4454556;32;34753;-85
2023/03/10 04:52:45;;;;;;;0.00;0.00;;;;;;;7.09;59.28;98472.91;4462798;32;33351;-85
2023/03/10 04:55:14;;;;;;;0.85;0.85;;;;;;;7.29;58.50;98466.63;4456632;32;34368;-86
2023/03/10 04:57:42;;;;;;;0.20;0.20;;;;;;;7.30;58.12;98459.59;4459903;31;32844;-87
2023/03/10 05:00:11;;;;;;;0.00;0.00;;;;;;;7.20;58.57;98461.84;4451460;32;34993;-86
2023/03/10 05:02:39;;;;;;;1.23;1.17;;;;;;;7.20;58.53;98459.22;4459697;32;33829;-87
2023/03/10 05:05:09;;;;;;;1.20;1.20;;;;;;;7.32;58.14;98445.50;4433266;32;32771;-86
2023/03/10 05:07:40;;;;;;;0.10;0.10;;;;;;;7.17;58.52;98441.03;4430389;32;32928;-86
2023/03/10 05:10:13;;;;;;;0.28;0.28;;;;;;;6.95;59.28;98450.91;4455411;31;33452;-86
2023/03/10 05:12:42;;;;;;;1.92;1.80;;;;;;;7.05;58.99;98439.03;4441184;32;33462;-86
2023/03/10 05:15:12;;;;;;;2.30;0.93;;;;;;;6.88;59.57;98437.25;4454590;32;32013;-86
2023/03/10 05:17:41;;;;;;;0.85;0.80;;;;;;;6.99;58.95;98434.09;4438516;31;34152;-86
2023/03/10 05:20:13;;;;;;;0.65;0.65;;;;;;;6.91;59.78;98435.31;4454326;31;34678;-86
2023/03/10 05:22:44;;;;;;;2.08;1.55;;;;;;;7.11;59.10;98436.06;4455866;31;33380;-86
2023/03/10 05:25:17;;;;;;;1.27;1.02;;;;;;;6.90;59.37;98435.41;4450095;32;32161;-88
2023/03/10 05:27:48;;;;;;;0.25;0.25;;;;;;;7.00;59.45;98435.78;4443443;32;34251;-88
2023/03/10 05:30:16;;;;;;;0.47;0.47;;;;;;;7.15;59.03;98429.75;4444539;31;30987;-88
2023/03/10 05:32:45;;;;;;;0.00;0.00;;;;;;;7.42;57.55;98422.22;4472095;31;33769;-88
2023/03/10 05:35:14;;;;;;;2.60;1.65;;;;;;;7.03;58.51;98414.66;4458834;31;32396;-87
2023/03/10 05:37:43;;;;;;;0.28;0.28;;;;;;;6.92;59.38;98415.19;4429458;31;34297;-86
2023/03/10 05:40:18;;;;;;;0.15;0.15;;;;;;;7.02;59.34;98415.56;4446180;31;34680;-87
2023/03/10 05:42:48;;;;;;;0.30;0.30;;;;;;;6.95;59.77;98422.91;4467034;31;33887;-86
2023/03/10 05:45:17;;;;;;;0.80;0.80;;;;;;;7.04;59.65;98409.31;4442289;31;32326;-88
2023/03/10 05:47:46;;;;;;;2.67;0.65;;;;;;;7.13;59.75;98393.09;4450664;32;31763;-85
2023/03/10 05:50:17;;;;;;;1.27;1.17;;;;;;;7.17;59.55;98399.87;4452896;32;34368;-86
2023/03/10 05:52:45;;;;;;;1.10;1.10;;;;;;;7.36;58.81;98397.12;4466735;31;32914;-86
2023/03/10 05:55:17;;;;;;;0.00;0.00;;;;;;;7.47;58.31;98393.94;4439170;32;33926;-86
2023/03/10 05:57:50;;;;;;;0.20;0.20;;;;;;;7.76;57.78;98394.97;4462373;31;32511;-85
2023/03/10 06:00:19;;;;;;;0.10;0.05;;;;;;;7.63;58.38;98389.53;4467176;31;33923;-86
2023/03/10 06:02:52;;;;;;;0.15;0.15;;;;;;;7.37;59.41;98398.81;4453115;32;33844;-86
2023/03/10 06:05:22;;;;;;;0.60;0.60;;;;;;;7.35;59.96;98390.16;4470288;31;34061;-87
2023/03/10 06:07:51;;;;;;;0.30;0.30;;;;;;;7.29;60.47;98385.25;4447130;32;32851;-87
2023/03/10 06:10:20;;;;;;;0.50;0.50;;;;;;;7.36;60.67;98372.66;4477281;31;33923;-86
2023/03/10 06:12:49;;;;;;;0.20;0.20;;;;;;;7.50;60.52;98371.88;4458393;31;33500;-87
2023/03/10 06:15:18;;;;;;;0.28;0.28;;;;;;;7.57;60.59;98378.53;4469491;31;32825;-87
2023/03/10 06:17:46;;;;;;;0.75;0.75;;;;;;;7.66;60.52;98380.66;4449954;31;34298;-85
2023/03/10 06:20:15;;;;;;;0.45;0.45;;;;;;;7.72;60.63;98382.09;4440305;32;34208;-86
2023/03/10 06:22:46;;;;;;;0.32;0.32;;;;;;;7.88;60.36;98383.81;4452907;31;33587;-87
2023/03/10 06:25:15;;;;;;;1.55;1.45;;;;;;;7.87;60.23;98379.47;4447463;31;35645;-88
2023/03/10 06:27:45;;;;;;;4.35;2.92;;;;;;;8.24;59.70;98381.81;4454725;31;31951;-87
2023/03/10 06:30:16;;;;;;;2.35;2.20;;;;;;;8.17;59.92;98382.19;4464245;32;35130;-87
2023/03/10 06:32:45;;;;;;;1.87;1.77;;;;;;;8.24;60.14;98372.16;4465482;31;32961;-87
2023/03/10 06:35:13;;;;;;;2.83;2.62;;;;;;;8.18;60.64;98367.25;4449913;31;32281;-87
2023/03/10 06:37:43;;;;;;;1.37;1.27;;;;;;;8.39;60.46;98363.41;4455757;31;32394;-87
2023/03/10 06:40:16;;;;;;;2.83;1.52;;;;;;;8.48;60.92;98367.28;4465308;32;33372;-88
2023/03/10 06:42:46;;;;;;;2.05;1.48;;;;;;;8.91;60.04;98349.81;4448928;32;34391;-87
2023/03/10 06:45:16;;;;;;;1.92;1.83;;;;;;;8.83;60.43;98354.72;4468330;31;32584;-87
2023/03/10 06:47:46;;;;;;;1.37;1.27;;;;;;;8.90;60.72;98358.66;4438705;32;31847;-87
2023/03/10 06:50:18;;;;;;;0.57;0.57;;;;;;;9.22;60.18;98361.13;4472415;31;33226;-87
2023/03/10 06:52:57;;;;;;;1.25;1.17;;;;;;;9.33;60.39;98356.06;4445166;32;32395;-87
2023/03/10 06:55:31;;;;;;;1.30;1.20;;;;;;;9.32;60.65;98356.16;4466074;32;32128;-87
2023/03/10 06:58:00;;;;;;;1.67;1.45;;;;;;;9.44;60.51;98352.75;4466489;31;34618;-88
2023/03/10 07:00:28;;;;;;;0.95;0.95;;;;;;;9.71;60.18;98347.53;4447879;32;33696;-88
2023/03/10 07:02:59;;;;;;;1.23;1.20;;;;;;;10.12;59.77;98350.19;4452762;31;33831;-87
2023/03/10 07:05:28;;;;;;;2.35;2.00;;;;;;;10.50;58.79;98363.53;4453836;31;32258;-89
2023/03/10 07:07:58;;;;;;;1.70;1.60;;;;;;;10.45;59.67;98352.44;4455731;31;32968;-88
2023/03/10 07:10:26;;;;;;;0.70;0.70;;;;;;;10.59;59.85;98348.88;4456201;31;32775;-88
2023/03/10 07:12:57;;;;;;;0.98;0.95;;;;;;;10.56;60.52;98342.94;4451618;32;33016;-88
2023/03/10 07:15:25;;;;;;;0.47;0.47;;;;;;;10.97;60.27;98337.50;4470283;31;31779;-89
2023/03/10 07:17:56;;;;;;;1.92;1.83;;;;;;;11.17;60.15;98344.06;4448781;32;34222;-88
2023/03/10 07:20:24;;;;;;;4.07;1.27;;;;;;;11.25;60.25;98336.44;4456307;31;33512;-89
2023/03/10 07:22:52;;;;;;;1.92;1.75;;;;;;;11.34;60.53;98332.31;4470749;32;33969;-89
2023/03/10 07:25:20;;;;;;;0.57;0.57;;;;;;;11.58;60.31;98338.50;4457837;31;33720;-89
2023/03/10 07:27:49;;;;;;;2.70;2.42;;;;;;;11.64;60.25;98338.06;4460184;32;31930;-88
2023/03/10 07:30:18;;;;;;;0.50;0.50;;;;;;;11.62;60.26;98339.13;4465681;31;34669;-89
2023/03/10 07:32:54;;;;;;;11.88;1.37;;;;;;;11.54;60.76;98348.47;4440583;32;34697;-88
2023/03/10 07:35:23;;;;;;;1.80;1.70;;;;;;;11.92;60.16;98339.63;4462182;32;33470;-88
2023/03/10 07:37:52;;;;;;;0.95;0.95;;;;;;;12.18;59.66;98331.56;4438614;32;34750;-88
2023/03/10 07:40:23;;;;;;;0.80;0.80;;;;;;;12.20;59.49;98332.28;4444926;32;34941;-89
2023/03/10 07:42:55;;;;;;;0.55;0.55;;;;;;;12.26;59.40;98330.06;4439168;32;34465;-89
2023/03/10 07:45:25;;;;;;;0.75;0.73;;;;;;;12.35;59.41;98333.81;4425192;32;31701;-89
2023/03/10 07:47:54;;;;;;;3.60;1.58;;;;;;;12.46;59.32;98325.91;4438602;32;32578;-89
2023/03/10 07:50:24;;;;;;;2.25;1.73;;;;;;;12.89;58.35;98313.88;4443157;32;33007;-89
2023/03/10 07:52:54;;;;;;;6.15;2.08;;;;;;;13.23;57.74;98309.47;4437953;32;33522;-90
2023/03/10 07:55:23;;;;;;;0.70;0.35;;;;;;;13.42;57.60;98306.22;4445275;32;31674;-90
2023/03/10 07:57:51;;;;;;;3.33;1.23;;;;;;;13.34;57.67;98306.84;4449597;32;33094;-89
2023/03/10 08:00:20;;;;;;;0.40;0.40;;;;;;;13.38;57.84;98302.13;4443802;32;34142;-89
2023/03/10 08:02:54;;;;;;;0.80;0.80;;;;;;;13.84;56.19;98299.31;4420662;32;32771;-90
2023/03/10 08:05:22;;;;;;;0.43;0.43;;;;;;;13.63;57.73;98298.41;4446496;32;32593;-89
2023/03/10 08:07:51;;;;;;;0.20;0.20;;;;;;;14.01;57.24;98290.00;4423954;32;33326;-89
2023/03/10 08:10:20;;;;;;;0.20;0.20;;;;;;;13.84;57.16;98288.69;4435729;32;34878;-90
2023/03/10 08:12:47;;;;;;;0.82;0.40;;;;;;;13.96;57.11;98290.38;4438717;32;33225;-89
2023/03/10 08:15:16;;;;;;;1.45;1.35;;;;;;;14.25;56.70;98282.66;4428391;32;33438;-88
2023/03/10 08:17:45;;;;;;;1.55;1.48;;;;;;;14.35;55.72;98267.62;4433834;32;33540;-89
2023/03/10 08:20:14;;;;;;;2.53;1.62;;;;;;;14.59;55.14;98267.41;4432305;32;32915;-90
2023/03/10 08:22:46;;;;;;;0.43;0.43;;;;;;;14.86;54.35;98266.06;4437918;32;33823;-89
2023/03/10 08:25:13;;;;;;;0.08;0.08;;;;;;;15.03;53.63;98262.78;4440011;32;32433;-90
2023/03/10 08:27:42;;;;;;;1.17;0.95;;;;;;;14.62;54.20;98262.81;4441498;32;33452;-90
2023/03/10 08:30:18;;;;;;;1.27;1.27;;;;;;;14.88;53.70;98266.75;4434838;32;34615;-90
2023/03/10 08:32:48;;;;;;;1.58;0.50;;;;;;;15.14;53.08;98259.19;4439815;32;33513;-88
2023/03/10 08:35:26;;;;;;;12.45;2.35;;;;;;;15.31;52.45;98249.75;4446069;32;32978;-88
2023/03/10 08:37:55;;;;;;;1.40;1.33;;;;;;;15.19;52.77;98250.81;4451613;32;32200;-87
2023/03/10 08:40:27;;;;;;;1.45;1.35;;;;;;;15.31;52.14;98242.59;4437153;32;32813;-87
2023/03/10 08:42:56;;;;;;;2.78;0.50;;;;;;;15.42;52.12;98244.31;4448480;32;33783;-87
2023/03/10 08:45:24;;;;;;;2.03;1.85;;;;;;;15.44;52.00;98239.72;4434317;32;32985;-87
2023/03/10 08:47:52;;;;;;;0.65;0.65;;;;;;;15.49;51.81;98236.66;4454105;32;32453;-87
2023/03/10 08:50:23;;;;;;;0.25;0.25;;;;;;;15.41;52.17;98229.34;4448311;32;32917;-88
2023/03/10 08:52:53;;;;;;;1.55;1.00;;;;;;;15.79;51.50;98233.09;4459520;32;33724;-87
2023/03/10 08:55:23;;;;;;;1.08;1.02;;;;;;;15.64;52.37;98224.66;4443181;32;32354;-87
2023/03/10 08:57:53;;;;;;;0.68;0.68;;;;;;;15.81;51.73;98223.16;4452912;32;32323;-87
2023/03/10 09:00:22;;;;;;;4.00;0.73;;;;;;;15.98;50.75;98222.47;4456149;32;33734;-88
2023/03/10 09:02:52;;;;;;;2.45;1.67;;;;;;;15.95;51.06;98222.75;4453901;32;33647;-88
2023/03/10 09:05:20;;;;;;;1.62;0.80;;;;;;;15.89;51.04;98220.62;4432644;32;32382;-88
2023/03/10 09:07:50;;;;;;;0.73;0.73;;;;;;;16.20;49.98;98215.19;4464091;32;33571;-87
2023/03/10 09:10:23;;;;;;;4.43;3.10;;;;;;;16.30;50.05;98210.69;4468264;32;32873;-88
2023/03/10 09:12:51;;;;;;;1.52;1.12;;;;;;;16.27;49.90;98217.13;4454532;32;33411;-87
2023/03/10 09:15:40;;;;;;;0.70;0.70;;;;;;;16.38;49.86;98216.16;4455250;32;32656;-88
2023/03/10 09:18:10;;;;;;;0.43;0.43;;;;;;;16.10;50.45;98216.03;4458872;32;33410;-88
2023/03/10 09:20:41;;;;;;;14.90;2.10;;;;;;;16.35;49.66;98205.78;4438118;32;33325;-88
2023/03/10 09:23:16;;;;;;;1.92;1.05;;;;;;;16.25;50.40;98197.78;4474680;31;32849;-88
2023/03/10 09:25:47;;;;;;;0.30;0.30;;;;;;;16.29;50.07;98195.69;4453048;31;32730;-88
2023/03/10 09:28:19;;;;;;;0.85;0.82;;;;;;;16.43;50.01;98191.75;4450753;32;33498;-87
2023/03/10 09:30:49;;;;;;;1.45;1.35;;;;;;;16.40;50.31;98190.19;4449391;32;33071;-88
2023/03/10 09:33:21;;;;;;;1.62;1.52;;;;;;;16.52;50.36;98183.75;4452631;32;33650;-88
2023/03/10 09:35:50;;;;;;;0.13;0.13;;;;;;;16.85;49.60;98179.75;4454126;32;31750;-89
2023/03/10 09:38:34;;;;;;;0.73;0.73;;;;;;;17.13;49.21;98177.06;4442071;31;33711;-88
2023/03/10 09:41:17;;;;;;;2.97;2.42;;;;;;;17.11;49.52;98173.72;4465659;32;36511;-87
2023/03/10 09:43:50;;;;;;;3.20;0.88;;;;;;;16.64;50.79;98171.91;4447795;32;33987;-88
2023/03/10 09:46:24;;;;;;;2.22;1.00;;;;;;;17.18;49.38;98169.47;4453417;32;32186;-90
2023/03/10 09:49:16;;;;;;;2.58;2.08;;;;;;;17.04;50.58;98157.50;4452905;32;32379;-84
2023/03/10 09:51:48;;;;;;;0.47;0.47;;;;;;;17.07;50.33;98162.50;4455982;32;34047;-87
2023/03/10 09:54:32;;;;;;;2.87;1.35;;;;;;;17.25;50.38;98153.72;4445531;32;32786;-83
2023/03/10 09:57:03;;;;;;;2.70;1.25;;;;;;;17.22;49.93;98157.53;4455086;32;32620;-83
2023/03/10 09:59:36;;;;;;;0.75;0.75;;;;;;;17.63;49.40;98148.13;4473330;31;34715;-86
2023/03/10 10:02:19;;;;;;;1.62;1.52;;;;;;;17.65;49.98;98148.81;4454306;31;33719;-86
2023/03/10 10:04:52;;;;;;;2.22;1.10;;;;;;;18.00;49.27;98127.66;4462750;31;33384;-85
2023/03/10 10:07:24;;;;;;;2.15;1.30;;;;;;;18.17;48.83;98129.44;4472371;31;33870;-86
2023/03/10 10:10:13;;;;;;;0.60;0.52;;;;;;;18.24;49.06;98124.31;4435083;32;33825;-85
2023/03/10 10:12:42;;;;;;;1.12;1.00;;;;;;;18.16;49.72;98120.56;4474030;31;32840;-86
2023/03/10 10:15:15;;;;;;;1.15;1.08;;;;;;;18.45;48.79;98123.94;4464393;31;35537;-85
2023/03/10 10:17:55;;;;;;;11.43;1.98;;;;;;;18.22;49.35;98121.78;4470381;32;32867;-86
2023/03/10 10:20:57;;;;;;;1.50;1.40;;;;;;;17.83;49.97;98118.66;4443502;32;32879;-87
2023/03/10 10:26:29;;;;;;;1.58;1.48;;;;;;;19.07;48.06;98093.34;4464736;32;33185;-84
2023/03/10 10:29:24;;;;;;;0.50;0.50;;;;;;;18.88;48.08;98085.59;4453230;32;32611;-84
2023/03/10 10:32:10;;;;;;;1.33;1.15;;;;;;;18.86;48.66;98072.41;4453718;32;32766;-84
2023/03/10 10:34:46;;;;;;;1.60;1.50;;;;;;;19.24;46.85;98072.84;4455347;31;33686;-84
2023/03/10 10:37:35;;;;;;;1.55;0.70;;;;;;;19.22;46.15;98076.66;4456110;31;32039;-84
2023/03/10 10:40:23;;;;;;;5.25;0.88;;;;;;;18.85;45.42;98067.22;4456598;32;33550;-84
2023/03/10 10:42:54;;;;;;;0.75;0.75;;;;;;;19.12;44.34;98053.56;4466635;31;33005;-84
2023/03/10 10:45:53;;;;;;;0.37;0.37;;;;;;;18.91;45.15;98061.22;4459940;31;31842;-84
2023/03/10 10:48:59;;;;;;;0.00;0.00;;;;;;;18.56;44.97;98065.72;4477635;31;32715;-84
2023/03/10 10:51:34;;;;;;;1.30;0.88;;;;;;;17.89;46.63;98057.44;4456636;32;33992;-83
2023/03/10 10:57:24;;;;;;;0.37;0.37;;;;;;;18.82;44.90;98056.84;4421535;32;33624;-83
2023/03/10 10:59:54;;;;;;;0.32;0.32;;;;;;;18.87;44.41;98047.31;4468515;31;33890;-84
2023/03/10 11:02:33;;;;;;;0.13;0.13;;;;;;;18.74;45.24;98046.09;4467753;32;33690;-84
2023/03/10 11:05:11;;;;;;;0.37;0.20;;;;;;;19.03;44.82;98035.81;4464718;32;32500;-84
2023/03/10 11:07:39;;;;;;;3.00;1.35;;;;;;;19.21;44.43;98029.50;4473240;32;34132;-84
2023/03/10 11:10:14;;;;;;;0.00;0.00;;;;;;;19.85;43.53;98022.56;4473178;31;33818;-84
2023/03/10 11:13:05;;;;;;;14.00;1.33;;;;;;;20.11;42.93;98019.66;4462265;32;32408;-84
2023/03/10 11:15:55;;;;;;;0.10;0.10;;;;;;;20.30;42.26;97997.81;4447275;32;34554;-84
2023/03/10 11:18:34;;;;;;;0.17;0.17;;;;;;;20.12;42.40;97992.69;4451431;32;34225;-83
2023/03/10 11:21:06;;;;;;;1.02;0.95;;;;;;;19.32;43.47;97997.94;4462572;32;32178;-83
2023/03/10 11:23:56;;;;;;;3.05;1.12;;;;;;;19.48;43.61;97997.09;4461390;32;32755;-83
2023/03/10 11:26:33;;;;;;;0.30;0.30;;;;;;;19.84;42.57;97996.75;4451470;32;33862;-84
2023/03/10 11:29:27;;;;;;;0.10;0.10;;;;;;;19.95;42.47;97989.22;4460960;32;33211;-84
2023/03/10 11:32:07;;;;;;;0.52;0.52;;;;;;;20.29;41.05;97968.53;4466000;31;33541;-85
2023/03/10 11:34:42;;;;;;;2.78;0.47;;;;;;;20.27;41.77;97971.38;4469360;31;33971;-84
2023/03/10 11:37:25;;;;;;;0.15;0.15;;;;;;;20.53;41.75;97963.09;4462322;32;35143;-84
2023/03/10 11:40:10;;;;;;;0.10;0.10;;;;;;;20.20;41.83;97955.16;4467078;31;34437;-84
2023/03/10 11:42:47;;;;;;;0.10;0.10;;;;;;;20.57;42.02;97956.38;4450426;31;32695;-84
2023/03/10 11:45:51;;;;;;;0.80;0.80;;;;;;;20.63;40.68;97950.31;4455383;31;32817;-84
2023/03/10 11:48:28;;;;;;;0.45;0.45;;;;;;;21.18;40.22;97932.34;4458056;32;34186;-84
2023/03/10 11:50:59;;;;;;;0.55;0.55;;;;;;;21.30;40.00;97925.53;4472593;31;34018;-85
2023/03/10 11:53:37;;;;;;;0.90;0.85;;;;;;;20.83;41.34;97934.59;4454547;31;34123;-82
2023/03/10 11:56:11;;;;;;;1.67;1.08;;;;;;;21.01;40.35;97918.22;4448182;32;32497;-83
2023/03/10 11:58:51;;;;;;;0.50;0.43;;;;;;;21.09;40.56;97903.91;4449610;32;35264;-83
2023/03/10 12:01:30;;;;;;;0.85;0.57;;;;;;;20.88;41.22;97909.91;4475444;31;34069;-83
2023/03/10 12:04:20;;;;;;;0.77;0.57;;;;;;;20.91;40.34;97909.56;4457051;31;35515;-84